sensor_id;sensor_type;location;lat;lon;timestamp;P1;durP1;ratioP1;P2;durP2;ratioP2
59159;SDS011;44941;45.058;20.076;2023-12-28T00:01:35;43.88;;;23.60;;
59159;SDS011;44941;45.058;20.076;2023-12-28T00:04:01;38.38;;;24.13;;
59159;SDS011;44941;45.058;20.076;2023-12-28T00:06:27;39.28;;;24.27;;
59159;SDS011;44941;45.058;20.076;2023-12-28T00:08:53;42.65;;;25.17;;
59159;SDS011;44941;45.058;20.076;2023-12-28T00:11:20;40.17;;;25.63;;
59159;SDS011;44941;45.058;20.076;2023-12-28T00:13:48;48.67;;;28.23;;
59159;SDS011;44941;45.058;20.076;2023-12-28T00:16:14;56.50;;;30.83;;
59159;SDS011;44941;45.058;20.076;2023-12-28T00:18:40;49.42;;;28.10;;
59159;SDS011;44941;45.058;20.076;2023-12-28T00:21:06;42.13;;;25.10;;
59159;SDS011;44941;45.058;20.076;2023-12-28T00:23:32;39.20;;;23.33;;
59159;SDS011;44941;45.058;20.076;2023-12-28T00:25:58;42.63;;;24.13;;
59159;SDS011;44941;45.058;20.076;2023-12-28T00:28:25;41.13;;;22.88;;
59159;SDS011;44941;45.058;20.076;2023-12-28T00:30:51;42.75;;;23.83;;
59159;SDS011;44941;45.058;20.076;2023-12-28T00:33:17;42.78;;;24.23;;
59159;SDS011;44941;45.058;20.076;2023-12-28T00:35:43;41.38;;;23.60;;
59159;SDS011;44941;45.058;20.076;2023-12-28T00:38:09;41.92;;;23.75;;
59159;SDS011;44941;45.058;20.076;2023-12-28T00:40:35;43.25;;;25.38;;
59159;SDS011;44941;45.058;20.076;2023-12-28T00:43:01;44.42;;;24.67;;
59159;SDS011;44941;45.058;20.076;2023-12-28T00:45:27;43.42;;;25.95;;
59159;SDS011;44941;45.058;20.076;2023-12-28T00:47:54;40.58;;;25.77;;
59159;SDS011;44941;45.058;20.076;2023-12-28T00:50:21;48.85;;;26.33;;
59159;SDS011;44941;45.058;20.076;2023-12-28T00:52:47;45.10;;;24.17;;
59159;SDS011;44941;45.058;20.076;2023-12-28T00:55:14;40.88;;;25.15;;
59159;SDS011;44941;45.058;20.076;2023-12-28T00:57:40;43.33;;;25.33;;
59159;SDS011;44941;45.058;20.076;2023-12-28T01:00:06;41.72;;;24.25;;
59159;SDS011;44941;45.058;20.076;2023-12-28T01:02:32;38.88;;;24.88;;
59159;SDS011;44941;45.058;20.076;2023-12-28T01:05:10;40.50;;;23.20;;
59159;SDS011;44941;45.058;20.076;2023-12-28T01:07:36;39.13;;;23.43;;
59159;SDS011;44941;45.058;20.076;2023-12-28T01:10:03;41.40;;;24.42;;
59159;SDS011;44941;45.058;20.076;2023-12-28T01:12:29;44.83;;;25.42;;
59159;SDS011;44941;45.058;20.076;2023-12-28T01:14:55;40.33;;;24.45;;
59159;SDS011;44941;45.058;20.076;2023-12-28T01:17:21;42.92;;;24.02;;
59159;SDS011;44941;45.058;20.076;2023-12-28T01:19:47;39.55;;;23.60;;
59159;SDS011;44941;45.058;20.076;2023-12-28T01:22:13;39.67;;;23.48;;
59159;SDS011;44941;45.058;20.076;2023-12-28T01:24:39;36.53;;;22.95;;
59159;SDS011;44941;45.058;20.076;2023-12-28T01:27:05;38.00;;;22.92;;
59159;SDS011;44941;45.058;20.076;2023-12-28T01:29:31;41.85;;;23.67;;
59159;SDS011;44941;45.058;20.076;2023-12-28T01:31:59;43.17;;;23.77;;
59159;SDS011;44941;45.058;20.076;2023-12-28T01:34:25;40.83;;;23.70;;
59159;SDS011;44941;45.058;20.076;2023-12-28T01:36:51;40.45;;;23.80;;
59159;SDS011;44941;45.058;20.076;2023-12-28T01:39:17;39.75;;;23.50;;
59159;SDS011;44941;45.058;20.076;2023-12-28T01:41:43;36.00;;;23.88;;
59159;SDS011;44941;45.058;20.076;2023-12-28T01:44:11;36.08;;;23.17;;
59159;SDS011;44941;45.058;20.076;2023-12-28T01:46:37;38.28;;;22.08;;
59159;SDS011;44941;45.058;20.076;2023-12-28T01:49:03;44.38;;;23.92;;
59159;SDS011;44941;45.058;20.076;2023-12-28T01:51:30;45.35;;;23.92;;
59159;SDS011;44941;45.058;20.076;2023-12-28T01:53:56;40.22;;;24.73;;
59159;SDS011;44941;45.058;20.076;2023-12-28T01:56:23;37.80;;;23.17;;
59159;SDS011;44941;45.058;20.076;2023-12-28T01:58:49;39.75;;;22.60;;
59159;SDS011;44941;45.058;20.076;2023-12-28T02:01:17;36.80;;;22.77;;
59159;SDS011;44941;45.058;20.076;2023-12-28T02:03:44;40.30;;;22.85;;
59159;SDS011;44941;45.058;20.076;2023-12-28T02:06:11;35.45;;;21.77;;
59159;SDS011;44941;45.058;20.076;2023-12-28T02:08:41;35.40;;;21.23;;
59159;SDS011;44941;45.058;20.076;2023-12-28T02:11:07;34.35;;;21.30;;
59159;SDS011;44941;45.058;20.076;2023-12-28T02:13:33;36.08;;;22.50;;
59159;SDS011;44941;45.058;20.076;2023-12-28T02:16:13;39.15;;;23.45;;
59159;SDS011;44941;45.058;20.076;2023-12-28T02:18:45;46.10;;;23.08;;
59159;SDS011;44941;45.058;20.076;2023-12-28T02:21:13;38.70;;;22.63;;
59159;SDS011;44941;45.058;20.076;2023-12-28T02:23:39;37.05;;;22.48;;
59159;SDS011;44941;45.058;20.076;2023-12-28T02:26:05;36.80;;;22.70;;
59159;SDS011;44941;45.058;20.076;2023-12-28T02:28:31;41.17;;;22.40;;
59159;SDS011;44941;45.058;20.076;2023-12-28T02:30:57;43.15;;;24.52;;
59159;SDS011;44941;45.058;20.076;2023-12-28T02:33:26;34.88;;;22.95;;
59159;SDS011;44941;45.058;20.076;2023-12-28T02:35:56;41.72;;;24.08;;
59159;SDS011;44941;45.058;20.076;2023-12-28T02:40:49;38.33;;;22.50;;
59159;SDS011;44941;45.058;20.076;2023-12-28T02:43:16;38.95;;;23.27;;
59159;SDS011;44941;45.058;20.076;2023-12-28T02:45:42;38.53;;;23.90;;
59159;SDS011;44941;45.058;20.076;2023-12-28T02:48:08;39.75;;;25.08;;
59159;SDS011;44941;45.058;20.076;2023-12-28T02:50:34;43.65;;;25.58;;
59159;SDS011;44941;45.058;20.076;2023-12-28T02:53:00;48.20;;;26.63;;
59159;SDS011;44941;45.058;20.076;2023-12-28T02:55:26;47.33;;;27.77;;
59159;SDS011;44941;45.058;20.076;2023-12-28T02:57:53;44.95;;;27.00;;
59159;SDS011;44941;45.058;20.076;2023-12-28T03:00:20;47.95;;;28.40;;
59159;SDS011;44941;45.058;20.076;2023-12-28T03:02:46;43.20;;;25.35;;
59159;SDS011;44941;45.058;20.076;2023-12-28T03:05:12;42.55;;;26.15;;
59159;SDS011;44941;45.058;20.076;2023-12-28T03:07:38;39.63;;;25.52;;
59159;SDS011;44941;45.058;20.076;2023-12-28T03:10:05;42.05;;;25.98;;
59159;SDS011;44941;45.058;20.076;2023-12-28T03:12:31;37.13;;;24.73;;
59159;SDS011;44941;45.058;20.076;2023-12-28T03:14:57;42.20;;;25.33;;
59159;SDS011;44941;45.058;20.076;2023-12-28T03:17:23;40.03;;;25.98;;
59159;SDS011;44941;45.058;20.076;2023-12-28T03:19:59;45.28;;;26.15;;
59159;SDS011;44941;45.058;20.076;2023-12-28T03:22:25;43.30;;;26.10;;
59159;SDS011;44941;45.058;20.076;2023-12-28T03:24:51;41.28;;;25.33;;
59159;SDS011;44941;45.058;20.076;2023-12-28T03:27:17;41.72;;;24.83;;
59159;SDS011;44941;45.058;20.076;2023-12-28T03:29:43;40.30;;;25.35;;
59159;SDS011;44941;45.058;20.076;2023-12-28T03:32:09;42.38;;;25.95;;
59159;SDS011;44941;45.058;20.076;2023-12-28T03:34:36;43.40;;;26.30;;
59159;SDS011;44941;45.058;20.076;2023-12-28T03:37:02;44.60;;;26.02;;
59159;SDS011;44941;45.058;20.076;2023-12-28T03:39:28;42.67;;;25.95;;
59159;SDS011;44941;45.058;20.076;2023-12-28T03:41:54;48.42;;;27.05;;
59159;SDS011;44941;45.058;20.076;2023-12-28T03:44:20;37.80;;;24.90;;
59159;SDS011;44941;45.058;20.076;2023-12-28T03:46:50;42.67;;;25.35;;
59159;SDS011;44941;45.058;20.076;2023-12-28T03:49:19;39.88;;;24.80;;
59159;SDS011;44941;45.058;20.076;2023-12-28T03:51:46;45.25;;;25.50;;
59159;SDS011;44941;45.058;20.076;2023-12-28T03:54:12;38.65;;;24.30;;
59159;SDS011;44941;45.058;20.076;2023-12-28T03:56:41;45.38;;;26.42;;
59159;SDS011;44941;45.058;20.076;2023-12-28T03:59:08;40.83;;;25.90;;
59159;SDS011;44941;45.058;20.076;2023-12-28T04:01:34;38.60;;;26.30;;
59159;SDS011;44941;45.058;20.076;2023-12-28T04:04:00;43.53;;;26.55;;
59159;SDS011;44941;45.058;20.076;2023-12-28T04:06:27;43.75;;;26.50;;
59159;SDS011;44941;45.058;20.076;2023-12-28T04:08:54;42.80;;;26.43;;
59159;SDS011;44941;45.058;20.076;2023-12-28T04:11:20;38.28;;;24.95;;
59159;SDS011;44941;45.058;20.076;2023-12-28T04:13:46;40.22;;;25.10;;
59159;SDS011;44941;45.058;20.076;2023-12-28T04:16:15;43.40;;;26.33;;
59159;SDS011;44941;45.058;20.076;2023-12-28T04:18:41;42.15;;;26.02;;
59159;SDS011;44941;45.058;20.076;2023-12-28T04:21:20;39.30;;;25.58;;
59159;SDS011;44941;45.058;20.076;2023-12-28T04:26:12;42.15;;;25.80;;
59159;SDS011;44941;45.058;20.076;2023-12-28T04:28:39;43.58;;;27.17;;
59159;SDS011;44941;45.058;20.076;2023-12-28T04:31:05;46.40;;;28.08;;
59159;SDS011;44941;45.058;20.076;2023-12-28T04:33:32;50.50;;;29.17;;
59159;SDS011;44941;45.058;20.076;2023-12-28T04:36:02;55.15;;;30.83;;
59159;SDS011;44941;45.058;20.076;2023-12-28T04:38:31;54.20;;;32.10;;
59159;SDS011;44941;45.058;20.076;2023-12-28T04:40:58;51.40;;;31.20;;
59159;SDS011;44941;45.058;20.076;2023-12-28T04:43:24;47.88;;;29.55;;
59159;SDS011;44941;45.058;20.076;2023-12-28T04:45:50;45.95;;;29.05;;
59159;SDS011;44941;45.058;20.076;2023-12-28T04:48:16;52.45;;;32.05;;
59159;SDS011;44941;45.058;20.076;2023-12-28T04:50:51;49.45;;;31.63;;
59159;SDS011;44941;45.058;20.076;2023-12-28T04:53:17;52.05;;;31.55;;
59159;SDS011;44941;45.058;20.076;2023-12-28T04:55:43;51.60;;;30.35;;
59159;SDS011;44941;45.058;20.076;2023-12-28T04:58:10;47.30;;;31.15;;
59159;SDS011;44941;45.058;20.076;2023-12-28T05:00:39;63.33;;;37.10;;
59159;SDS011;44941;45.058;20.076;2023-12-28T05:03:05;73.25;;;41.85;;
59159;SDS011;44941;45.058;20.076;2023-12-28T05:05:32;67.88;;;40.05;;
59159;SDS011;44941;45.058;20.076;2023-12-28T05:07:58;65.82;;;38.80;;
59159;SDS011;44941;45.058;20.076;2023-12-28T05:10:24;59.88;;;36.00;;
59159;SDS011;44941;45.058;20.076;2023-12-28T05:12:50;57.30;;;34.00;;
59159;SDS011;44941;45.058;20.076;2023-12-28T05:15:16;56.75;;;32.63;;
59159;SDS011;44941;45.058;20.076;2023-12-28T05:20:10;52.00;;;32.83;;
59159;SDS011;44941;45.058;20.076;2023-12-28T05:22:36;59.55;;;33.70;;
59159;SDS011;44941;45.058;20.076;2023-12-28T05:25:02;59.25;;;32.78;;
59159;SDS011;44941;45.058;20.076;2023-12-28T05:27:29;55.58;;;32.90;;
59159;SDS011;44941;45.058;20.076;2023-12-28T05:29:55;49.53;;;31.23;;
59159;SDS011;44941;45.058;20.076;2023-12-28T05:32:21;52.67;;;31.40;;
59159;SDS011;44941;45.058;20.076;2023-12-28T05:34:47;59.58;;;32.03;;
59159;SDS011;44941;45.058;20.076;2023-12-28T05:37:15;45.20;;;27.67;;
59159;SDS011;44941;45.058;20.076;2023-12-28T05:39:41;42.35;;;25.98;;
59159;SDS011;44941;45.058;20.076;2023-12-28T05:42:07;43.72;;;26.98;;
59159;SDS011;44941;45.058;20.076;2023-12-28T05:44:34;45.47;;;26.15;;
59159;SDS011;44941;45.058;20.076;2023-12-28T05:47:00;42.90;;;26.00;;
59159;SDS011;44941;45.058;20.076;2023-12-28T05:49:27;45.22;;;25.48;;
59159;SDS011;44941;45.058;20.076;2023-12-28T05:52:04;42.20;;;25.73;;
59159;SDS011;44941;45.058;20.076;2023-12-28T05:54:32;38.70;;;24.77;;
59159;SDS011;44941;45.058;20.076;2023-12-28T05:56:58;41.57;;;24.63;;
59159;SDS011;44941;45.058;20.076;2023-12-28T05:59:24;39.08;;;24.10;;
59159;SDS011;44941;45.058;20.076;2023-12-28T06:01:51;37.42;;;24.42;;
59159;SDS011;44941;45.058;20.076;2023-12-28T06:04:17;42.42;;;25.17;;
59159;SDS011;44941;45.058;20.076;2023-12-28T06:06:45;40.08;;;24.95;;
59159;SDS011;44941;45.058;20.076;2023-12-28T06:09:11;41.53;;;25.65;;
59159;SDS011;44941;45.058;20.076;2023-12-28T06:11:37;42.85;;;26.60;;
59159;SDS011;44941;45.058;20.076;2023-12-28T06:14:03;37.83;;;25.05;;
59159;SDS011;44941;45.058;20.076;2023-12-28T06:16:29;42.47;;;25.23;;
59159;SDS011;44941;45.058;20.076;2023-12-28T06:18:57;39.97;;;24.65;;
59159;SDS011;44941;45.058;20.076;2023-12-28T06:21:30;40.40;;;26.58;;
59159;SDS011;44941;45.058;20.076;2023-12-28T06:23:57;45.50;;;25.05;;
59159;SDS011;44941;45.058;20.076;2023-12-28T06:26:23;47.83;;;29.33;;
59159;SDS011;44941;45.058;20.076;2023-12-28T06:28:49;60.95;;;35.08;;
59159;SDS011;44941;45.058;20.076;2023-12-28T06:31:15;71.93;;;48.88;;
59159;SDS011;44941;45.058;20.076;2023-12-28T06:33:41;73.50;;;47.65;;
59159;SDS011;44941;45.058;20.076;2023-12-28T06:36:09;67.53;;;35.50;;
59159;SDS011;44941;45.058;20.076;2023-12-28T06:38:35;48.78;;;30.50;;
59159;SDS011;44941;45.058;20.076;2023-12-28T06:41:02;44.92;;;29.13;;
59159;SDS011;44941;45.058;20.076;2023-12-28T06:43:28;44.85;;;28.73;;
59159;SDS011;44941;45.058;20.076;2023-12-28T06:45:54;46.55;;;29.33;;
59159;SDS011;44941;45.058;20.076;2023-12-28T06:48:20;45.08;;;26.48;;
59159;SDS011;44941;45.058;20.076;2023-12-28T06:50:48;43.42;;;28.20;;
59159;SDS011;44941;45.058;20.076;2023-12-28T06:53:14;45.73;;;27.43;;
59159;SDS011;44941;45.058;20.076;2023-12-28T06:55:40;47.33;;;29.42;;
59159;SDS011;44941;45.058;20.076;2023-12-28T06:58:06;47.85;;;34.65;;
59159;SDS011;44941;45.058;20.076;2023-12-28T07:00:32;83.57;;;52.67;;
59159;SDS011;44941;45.058;20.076;2023-12-28T07:02:58;89.80;;;54.75;;
59159;SDS011;44941;45.058;20.076;2023-12-28T07:05:24;86.60;;;51.25;;
59159;SDS011;44941;45.058;20.076;2023-12-28T07:07:53;83.53;;;50.17;;
59159;SDS011;44941;45.058;20.076;2023-12-28T07:10:19;73.65;;;45.13;;
59159;SDS011;44941;45.058;20.076;2023-12-28T07:12:45;73.40;;;47.65;;
59159;SDS011;44941;45.058;20.076;2023-12-28T07:15:11;75.13;;;48.70;;
59159;SDS011;44941;45.058;20.076;2023-12-28T07:17:39;71.22;;;46.90;;
59159;SDS011;44941;45.058;20.076;2023-12-28T07:20:05;65.35;;;40.80;;
59159;SDS011;44941;45.058;20.076;2023-12-28T07:22:34;63.88;;;40.70;;
59159;SDS011;44941;45.058;20.076;2023-12-28T07:25:00;49.90;;;31.35;;
59159;SDS011;44941;45.058;20.076;2023-12-28T07:27:26;47.55;;;30.25;;
59159;SDS011;44941;45.058;20.076;2023-12-28T07:29:52;52.08;;;31.25;;
59159;SDS011;44941;45.058;20.076;2023-12-28T07:32:18;47.90;;;31.15;;
59159;SDS011;44941;45.058;20.076;2023-12-28T07:34:45;55.58;;;33.05;;
59159;SDS011;44941;45.058;20.076;2023-12-28T07:37:11;49.45;;;32.50;;
59159;SDS011;44941;45.058;20.076;2023-12-28T07:39:37;43.63;;;28.85;;
59159;SDS011;44941;45.058;20.076;2023-12-28T07:42:03;46.95;;;27.15;;
59159;SDS011;44941;45.058;20.076;2023-12-28T07:44:29;49.35;;;28.20;;
59159;SDS011;44941;45.058;20.076;2023-12-28T07:46:55;42.22;;;26.55;;
59159;SDS011;44941;45.058;20.076;2023-12-28T07:49:21;47.35;;;26.20;;
59159;SDS011;44941;45.058;20.076;2023-12-28T07:51:48;45.10;;;26.92;;
59159;SDS011;44941;45.058;20.076;2023-12-28T07:54:14;50.17;;;30.38;;
59159;SDS011;44941;45.058;20.076;2023-12-28T07:56:40;48.65;;;31.58;;
59159;SDS011;44941;45.058;20.076;2023-12-28T07:59:06;55.53;;;36.60;;
59159;SDS011;44941;45.058;20.076;2023-12-28T08:01:34;66.28;;;38.53;;
59159;SDS011;44941;45.058;20.076;2023-12-28T08:04:00;98.95;;;50.08;;
59159;SDS011;44941;45.058;20.076;2023-12-28T08:06:36;86.40;;;45.97;;
59159;SDS011;44941;45.058;20.076;2023-12-28T08:09:02;65.50;;;38.08;;
59159;SDS011;44941;45.058;20.076;2023-12-28T08:11:28;63.10;;;34.53;;
59159;SDS011;44941;45.058;20.076;2023-12-28T08:13:54;54.58;;;32.08;;
59159;SDS011;44941;45.058;20.076;2023-12-28T08:16:20;63.05;;;34.28;;
59159;SDS011;44941;45.058;20.076;2023-12-28T08:18:46;58.30;;;32.80;;
59159;SDS011;44941;45.058;20.076;2023-12-28T08:21:12;49.17;;;31.75;;
59159;SDS011;44941;45.058;20.076;2023-12-28T08:23:39;52.55;;;29.30;;
59159;SDS011;44941;45.058;20.076;2023-12-28T08:26:05;46.00;;;29.63;;
59159;SDS011;44941;45.058;20.076;2023-12-28T08:28:32;43.97;;;26.80;;
59159;SDS011;44941;45.058;20.076;2023-12-28T08:30:58;44.08;;;28.88;;
59159;SDS011;44941;45.058;20.076;2023-12-28T08:33:24;48.60;;;29.65;;
59159;SDS011;44941;45.058;20.076;2023-12-28T08:35:51;54.63;;;32.85;;
59159;SDS011;44941;45.058;20.076;2023-12-28T08:38:17;52.63;;;30.17;;
59159;SDS011;44941;45.058;20.076;2023-12-28T08:40:43;46.75;;;28.88;;
59159;SDS011;44941;45.058;20.076;2023-12-28T08:43:09;46.35;;;30.05;;
59159;SDS011;44941;45.058;20.076;2023-12-28T08:45:35;52.10;;;31.60;;
59159;SDS011;44941;45.058;20.076;2023-12-28T08:48:02;53.88;;;29.45;;
59159;SDS011;44941;45.058;20.076;2023-12-28T08:50:28;40.83;;;27.40;;
59159;SDS011;44941;45.058;20.076;2023-12-28T08:52:54;44.08;;;29.05;;
59159;SDS011;44941;45.058;20.076;2023-12-28T08:55:21;50.97;;;28.77;;
59159;SDS011;44941;45.058;20.076;2023-12-28T08:57:47;45.95;;;27.02;;
59159;SDS011;44941;45.058;20.076;2023-12-28T09:00:13;44.20;;;26.80;;
59159;SDS011;44941;45.058;20.076;2023-12-28T09:02:41;42.03;;;27.23;;
59159;SDS011;44941;45.058;20.076;2023-12-28T09:05:08;46.70;;;26.58;;
59159;SDS011;44941;45.058;20.076;2023-12-28T09:07:35;47.47;;;29.73;;
59159;SDS011;44941;45.058;20.076;2023-12-28T09:10:11;48.60;;;29.60;;
59159;SDS011;44941;45.058;20.076;2023-12-28T09:12:37;50.25;;;30.10;;
59159;SDS011;44941;45.058;20.076;2023-12-28T09:15:07;50.70;;;30.23;;
59159;SDS011;44941;45.058;20.076;2023-12-28T09:17:33;53.03;;;31.45;;
59159;SDS011;44941;45.058;20.076;2023-12-28T09:19:59;47.88;;;31.88;;
59159;SDS011;44941;45.058;20.076;2023-12-28T09:22:29;50.72;;;30.17;;
59159;SDS011;44941;45.058;20.076;2023-12-28T09:24:55;51.58;;;32.30;;
59159;SDS011;44941;45.058;20.076;2023-12-28T09:27:21;59.70;;;37.80;;
59159;SDS011;44941;45.058;20.076;2023-12-28T09:29:47;56.58;;;35.47;;
59159;SDS011;44941;45.058;20.076;2023-12-28T09:32:13;74.15;;;36.00;;
59159;SDS011;44941;45.058;20.076;2023-12-28T09:34:42;64.78;;;36.65;;
59159;SDS011;44941;45.058;20.076;2023-12-28T09:39:54;62.70;;;35.67;;
59159;SDS011;44941;45.058;20.076;2023-12-28T09:42:27;60.83;;;33.50;;
59159;SDS011;44941;45.058;20.076;2023-12-28T09:44:55;65.28;;;33.38;;
59159;SDS011;44941;45.058;20.076;2023-12-28T09:47:21;56.15;;;32.83;;
59159;SDS011;44941;45.058;20.076;2023-12-28T09:49:47;56.45;;;32.78;;
59159;SDS011;44941;45.058;20.076;2023-12-28T09:52:14;58.38;;;35.20;;
59159;SDS011;44941;45.058;20.076;2023-12-28T09:54:40;60.22;;;37.40;;
59159;SDS011;44941;45.058;20.076;2023-12-28T09:57:06;57.38;;;33.22;;
59159;SDS011;44941;45.058;20.076;2023-12-28T09:59:34;41.75;;;27.58;;
59159;SDS011;44941;45.058;20.076;2023-12-28T10:02:00;49.63;;;29.00;;
59159;SDS011;44941;45.058;20.076;2023-12-28T10:04:28;49.55;;;30.48;;
59159;SDS011;44941;45.058;20.076;2023-12-28T10:06:54;50.70;;;31.92;;
59159;SDS011;44941;45.058;20.076;2023-12-28T10:09:21;55.85;;;32.63;;
59159;SDS011;44941;45.058;20.076;2023-12-28T10:11:47;49.83;;;31.60;;
59159;SDS011;44941;45.058;20.076;2023-12-28T10:14:13;50.25;;;30.83;;
59159;SDS011;44941;45.058;20.076;2023-12-28T10:16:42;59.50;;;33.50;;
59159;SDS011;44941;45.058;20.076;2023-12-28T10:19:08;55.15;;;32.67;;
59159;SDS011;44941;45.058;20.076;2023-12-28T10:21:34;54.33;;;32.25;;
59159;SDS011;44941;45.058;20.076;2023-12-28T10:24:01;48.72;;;31.83;;
59159;SDS011;44941;45.058;20.076;2023-12-28T10:26:28;52.95;;;33.47;;
59159;SDS011;44941;45.058;20.076;2023-12-28T10:29:00;50.00;;;32.83;;
59159;SDS011;44941;45.058;20.076;2023-12-28T10:31:30;50.65;;;32.80;;
59159;SDS011;44941;45.058;20.076;2023-12-28T10:33:59;58.90;;;34.72;;
59159;SDS011;44941;45.058;20.076;2023-12-28T10:36:27;59.47;;;35.38;;
59159;SDS011;44941;45.058;20.076;2023-12-28T10:38:53;63.13;;;36.05;;
59159;SDS011;44941;45.058;20.076;2023-12-28T10:41:19;56.13;;;36.45;;
59159;SDS011;44941;45.058;20.076;2023-12-28T10:43:46;63.78;;;36.10;;
59159;SDS011;44941;45.058;20.076;2023-12-28T10:46:17;55.63;;;34.57;;
59159;SDS011;44941;45.058;20.076;2023-12-28T10:48:44;49.92;;;31.65;;
59159;SDS011;44941;45.058;20.076;2023-12-28T10:51:11;49.30;;;30.42;;
59159;SDS011;44941;45.058;20.076;2023-12-28T10:53:45;48.95;;;29.20;;
59159;SDS011;44941;45.058;20.076;2023-12-28T10:58:47;53.35;;;29.33;;
59159;SDS011;44941;45.058;20.076;2023-12-28T11:01:16;51.05;;;27.90;;
59159;SDS011;44941;45.058;20.076;2023-12-28T11:03:44;42.65;;;25.52;;
59159;SDS011;44941;45.058;20.076;2023-12-28T11:06:13;40.95;;;24.02;;
59159;SDS011;44941;45.058;20.076;2023-12-28T11:08:40;40.45;;;24.70;;
59159;SDS011;44941;45.058;20.076;2023-12-28T11:11:09;37.85;;;24.08;;
59159;SDS011;44941;45.058;20.076;2023-12-28T11:13:35;40.47;;;23.70;;
59159;SDS011;44941;45.058;20.076;2023-12-28T11:16:02;37.17;;;23.58;;
59159;SDS011;44941;45.058;20.076;2023-12-28T11:18:29;38.60;;;24.02;;
59159;SDS011;44941;45.058;20.076;2023-12-28T11:20:55;42.30;;;23.90;;
59159;SDS011;44941;45.058;20.076;2023-12-28T11:23:22;41.75;;;24.10;;
59159;SDS011;44941;45.058;20.076;2023-12-28T11:25:48;43.15;;;24.98;;
59159;SDS011;44941;45.058;20.076;2023-12-28T11:28:14;38.47;;;24.45;;
59159;SDS011;44941;45.058;20.076;2023-12-28T11:30:43;37.95;;;24.40;;
59159;SDS011;44941;45.058;20.076;2023-12-28T11:33:10;46.35;;;25.98;;
59159;SDS011;44941;45.058;20.076;2023-12-28T11:35:36;35.53;;;23.67;;
59159;SDS011;44941;45.058;20.076;2023-12-28T11:38:04;40.63;;;25.05;;
59159;SDS011;44941;45.058;20.076;2023-12-28T11:40:39;39.22;;;25.77;;
59159;SDS011;44941;45.058;20.076;2023-12-28T11:43:14;47.08;;;26.10;;
59159;SDS011;44941;45.058;20.076;2023-12-28T11:45:46;40.97;;;24.85;;
59159;SDS011;44941;45.058;20.076;2023-12-28T11:48:21;41.50;;;24.75;;
59159;SDS011;44941;45.058;20.076;2023-12-28T11:50:47;37.85;;;24.02;;
59159;SDS011;44941;45.058;20.076;2023-12-28T11:53:13;38.20;;;25.83;;
59159;SDS011;44941;45.058;20.076;2023-12-28T11:55:40;36.10;;;23.17;;
59159;SDS011;44941;45.058;20.076;2023-12-28T11:58:06;36.20;;;23.42;;
59159;SDS011;44941;45.058;20.076;2023-12-28T12:00:32;36.90;;;25.40;;
59159;SDS011;44941;45.058;20.076;2023-12-28T12:02:58;36.63;;;24.75;;
59159;SDS011;44941;45.058;20.076;2023-12-28T12:05:24;36.65;;;24.25;;
59159;SDS011;44941;45.058;20.076;2023-12-28T12:07:55;35.55;;;23.40;;
59159;SDS011;44941;45.058;20.076;2023-12-28T12:10:22;39.90;;;24.67;;
59159;SDS011;44941;45.058;20.076;2023-12-28T12:12:48;42.17;;;24.63;;
59159;SDS011;44941;45.058;20.076;2023-12-28T12:15:17;39.20;;;24.65;;
59159;SDS011;44941;45.058;20.076;2023-12-28T12:17:43;39.75;;;26.67;;
59159;SDS011;44941;45.058;20.076;2023-12-28T12:20:09;43.00;;;27.48;;
59159;SDS011;44941;45.058;20.076;2023-12-28T12:22:45;39.53;;;26.42;;
59159;SDS011;44941;45.058;20.076;2023-12-28T12:25:11;42.17;;;26.45;;
59159;SDS011;44941;45.058;20.076;2023-12-28T12:27:37;42.05;;;26.40;;
59159;SDS011;44941;45.058;20.076;2023-12-28T12:30:04;41.63;;;26.50;;
59159;SDS011;44941;45.058;20.076;2023-12-28T12:32:30;43.47;;;27.40;;
59159;SDS011;44941;45.058;20.076;2023-12-28T12:34:58;47.00;;;29.08;;
59159;SDS011;44941;45.058;20.076;2023-12-28T12:37:24;45.65;;;28.33;;
59159;SDS011;44941;45.058;20.076;2023-12-28T12:39:51;40.65;;;27.98;;
59159;SDS011;44941;45.058;20.076;2023-12-28T12:42:17;43.97;;;27.80;;
59159;SDS011;44941;45.058;20.076;2023-12-28T12:44:43;43.83;;;27.75;;
59159;SDS011;44941;45.058;20.076;2023-12-28T12:47:10;43.58;;;28.67;;
59159;SDS011;44941;45.058;20.076;2023-12-28T12:49:38;43.25;;;28.80;;
59159;SDS011;44941;45.058;20.076;2023-12-28T12:52:06;42.60;;;27.55;;
59159;SDS011;44941;45.058;20.076;2023-12-28T12:54:33;46.95;;;27.20;;
59159;SDS011;44941;45.058;20.076;2023-12-28T12:56:59;43.88;;;27.92;;
59159;SDS011;44941;45.058;20.076;2023-12-28T12:59:25;42.20;;;27.33;;
59159;SDS011;44941;45.058;20.076;2023-12-28T13:01:51;44.08;;;27.65;;
59159;SDS011;44941;45.058;20.076;2023-12-28T13:04:18;39.15;;;25.92;;
59159;SDS011;44941;45.058;20.076;2023-12-28T13:06:44;40.15;;;26.42;;
59159;SDS011;44941;45.058;20.076;2023-12-28T13:09:23;39.85;;;26.95;;
59159;SDS011;44941;45.058;20.076;2023-12-28T13:11:50;44.13;;;28.65;;
59159;SDS011;44941;45.058;20.076;2023-12-28T13:14:16;47.90;;;28.13;;
59159;SDS011;44941;45.058;20.076;2023-12-28T13:16:43;50.60;;;28.27;;
59159;SDS011;44941;45.058;20.076;2023-12-28T13:19:09;39.10;;;26.80;;
59159;SDS011;44941;45.058;20.076;2023-12-28T13:21:35;46.15;;;27.65;;
59159;SDS011;44941;45.058;20.076;2023-12-28T13:24:01;39.88;;;26.88;;
59159;SDS011;44941;45.058;20.076;2023-12-28T13:26:27;41.00;;;27.98;;
59159;SDS011;44941;45.058;20.076;2023-12-28T13:28:53;51.35;;;30.85;;
59159;SDS011;44941;45.058;20.076;2023-12-28T13:31:21;51.15;;;30.55;;
59159;SDS011;44941;45.058;20.076;2023-12-28T13:33:47;56.47;;;32.05;;
59159;SDS011;44941;45.058;20.076;2023-12-28T13:36:13;54.97;;;34.90;;
59159;SDS011;44941;45.058;20.076;2023-12-28T13:41:43;46.38;;;30.02;;
59159;SDS011;44941;45.058;20.076;2023-12-28T13:44:09;46.97;;;30.58;;
59159;SDS011;44941;45.058;20.076;2023-12-28T13:46:37;56.70;;;34.35;;
59159;SDS011;44941;45.058;20.076;2023-12-28T13:49:03;70.20;;;41.83;;
59159;SDS011;44941;45.058;20.076;2023-12-28T13:51:36;73.10;;;43.63;;
59159;SDS011;44941;45.058;20.076;2023-12-28T13:54:07;57.55;;;35.65;;
59159;SDS011;44941;45.058;20.076;2023-12-28T13:56:33;55.65;;;33.83;;
59159;SDS011;44941;45.058;20.076;2023-12-28T13:58:59;54.65;;;33.50;;
59159;SDS011;44941;45.058;20.076;2023-12-28T14:01:25;53.45;;;34.15;;
59159;SDS011;44941;45.058;20.076;2023-12-28T14:03:51;51.08;;;32.15;;
59159;SDS011;44941;45.058;20.076;2023-12-28T14:06:17;56.00;;;32.10;;
59159;SDS011;44941;45.058;20.076;2023-12-28T14:08:44;49.95;;;31.27;;
59159;SDS011;44941;45.058;20.076;2023-12-28T14:11:10;51.47;;;31.40;;
59159;SDS011;44941;45.058;20.076;2023-12-28T14:13:36;49.10;;;31.13;;
59159;SDS011;44941;45.058;20.076;2023-12-28T14:16:03;52.05;;;32.67;;
59159;SDS011;44941;45.058;20.076;2023-12-28T14:18:29;61.70;;;32.33;;
59159;SDS011;44941;45.058;20.076;2023-12-28T14:20:55;54.88;;;35.33;;
59159;SDS011;44941;45.058;20.076;2023-12-28T14:23:21;49.58;;;32.13;;